Time;durP1;ratioP1;P1;durP2;ratioP2;P2;SDS_P1;SDS_P2;PMS_P1;PMS_P2;Temp;Humidity;BMP_temperature;BMP_pressure;BME280_temperature;BME280_humidity;BME280_pressure;Samples;Min_cycle;Max_cycle;Signal;HPM_P1;HPM_P2
2021/07/10 00:00:59;;;;;;;9.48;7.30;;;;;;;18.03;85.90;99762.67;1732902;82;20982;-68
2021/07/10 00:03:25;;;;;;;10.00;6.85;;;;;;;18.04;86.30;99760.88;1732921;82;20995;-68
2021/07/10 00:05:51;;;;;;;9.80;7.53;;;;;;;18.04;86.37;99755.62;1733029;82;21443;-68
2021/07/10 00:08:18;;;;;;;8.20;7.40;;;;;;;18.04;86.45;99759.56;1733014;82;21058;-68
2021/07/10 00:10:46;;;;;;;9.60;6.97;;;;;;;18.04;85.52;99763.04;1732909;82;20971;-68
2021/07/10 00:13:14;;;;;;;8.35;7.35;;;;;;;17.99;85.21;99763.81;1732854;82;20955;-70
2021/07/10 00:15:41;;;;;;;8.58;7.17;;;;;;;17.94;85.08;99758.52;1732843;82;21011;-70
2021/07/10 00:18:08;;;;;;;9.33;7.28;;;;;;;17.89;85.25;99757.50;1733093;82;21478;-68
2021/07/10 00:20:36;;;;;;;10.72;7.95;;;;;;;17.86;85.50;99748.49;1732891;82;20948;-68
2021/07/10 00:23:04;;;;;;;9.48;7.92;;;;;;;17.83;85.85;99749.53;1732920;82;20936;-68
2021/07/10 00:25:31;;;;;;;8.33;7.45;;;;;;;17.81;86.09;99744.00;1732837;82;21472;-68
2021/07/10 00:27:57;;;;;;;7.97;7.17;;;;;;;17.81;86.08;99753.20;1732828;82;21081;-68
2021/07/10 00:30:24;;;;;;;12.95;7.42;;;;;;;17.80;86.34;99747.58;1732932;82;20963;-68
2021/07/10 00:32:52;;;;;;;10.85;7.55;;;;;;;17.79;86.40;99749.83;1732765;82;20948;-68
2021/07/10 00:35:19;;;;;;;10.95;7.42;;;;;;;17.77;86.04;99759.64;1732797;82;21186;-68
2021/07/10 00:37:46;;;;;;;9.13;6.90;;;;;;;17.76;85.90;99754.02;1732729;82;21614;-68
2021/07/10 00:40:14;;;;;;;8.38;6.67;;;;;;;17.76;86.58;99746.12;1721304;82;20942;-68
2021/07/10 00:42:41;;;;;;;9.18;6.95;;;;;;;17.75;87.17;99740.02;1717045;83;21938;-68
2021/07/10 00:45:10;;;;;;;11.88;7.28;;;;;;;17.76;87.60;99735.59;1717123;83;21082;-69
2021/07/10 00:47:36;;;;;;;11.08;7.72;;;;;;;17.76;87.84;99739.07;1716992;83;21144;-70
2021/07/10 00:50:20;;;;;;;8.13;6.62;;;;;;;17.77;87.94;99735.50;1717188;83;21010;-70
2021/07/10 00:52:47;;;;;;;9.75;6.92;;;;;;;17.78;88.00;99734.55;1717228;83;21455;-69
2021/07/10 00:55:13;;;;;;;8.30;6.10;;;;;;;17.78;87.23;99735.87;1717171;83;20987;-69
2021/07/10 00:57:42;;;;;;;9.05;7.22;;;;;;;17.77;86.79;99740.76;1717261;83;21050;-69
2021/07/10 01:00:16;;;;;;;11.95;7.05;;;;;;;17.73;86.68;99728.75;1717157;83;21144;-69
2021/07/10 01:02:43;;;;;;;7.58;6.72;;;;;;;17.70;86.66;99731.58;1717155;83;20962;-69
2021/07/10 01:05:18;;;;;;;10.03;7.05;;;;;;;17.68;87.51;99731.30;1717224;83;21038;-69
2021/07/10 01:07:46;;;;;;;7.97;6.75;;;;;;;17.67;87.95;99725.20;1717122;83;20963;-69
2021/07/10 01:10:15;;;;;;;7.50;6.80;;;;;;;17.66;88.13;99728.77;1717364;83;20983;-69
2021/07/10 01:12:46;;;;;;;8.85;6.67;;;;;;;17.65;88.34;99725.77;1717252;83;21218;-69
2021/07/10 01:15:15;;;;;;;12.63;7.08;;;;;;;17.63;87.74;99728.09;1697350;83;21458;-69
2021/07/10 01:17:45;;;;;;;8.30;6.53;;;;;;;17.60;87.10;99730.45;1717187;83;21403;-69
2021/07/10 01:20:18;;;;;;;9.45;7.80;;;;;;;17.59;86.77;99730.08;1717549;83;21030;-69
2021/07/10 01:22:46;;;;;;;9.40;7.70;;;;;;;17.58;86.89;99727.92;1717223;83;21002;-69
2021/07/10 01:25:16;;;;;;;8.68;7.53;;;;;;;17.57;86.98;99720.16;1717206;83;21055;-69
2021/07/10 01:27:42;;;;;;;7.55;6.67;;;;;;;17.55;86.85;99717.63;1717389;82;20946;-69
2021/07/10 01:30:14;;;;;;;9.80;7.33;;;;;;;17.54;86.92;99719.05;1717437;83;21490;-70
2021/07/10 01:32:43;;;;;;;29.77;9.55;;;;;;;17.54;86.85;99713.31;1717634;83;21003;-70
2021/07/10 01:35:10;;;;;;;17.05;7.78;;;;;;;17.52;86.97;99703.36;1717279;82;21482;-70
2021/07/10 01:37:38;;;;;;;8.83;7.40;;;;;;;17.50;86.90;99707.88;1717153;83;21147;-69
2021/07/10 01:40:07;;;;;;;10.13;7.47;;;;;;;17.50;86.58;99707.04;1725251;82;20995;-69
2021/07/10 01:42:34;;;;;;;8.40;6.72;;;;;;;17.49;86.30;99705.34;1732953;82;20964;-69
2021/07/10 01:45:00;;;;;;;9.15;6.83;;;;;;;17.48;86.20;99710.23;1733059;82;20983;-70
2021/07/10 01:47:28;;;;;;;9.58;8.03;;;;;;;17.46;86.18;99710.81;1733001;82;21546;-69
2021/07/10 01:49:55;;;;;;;9.35;7.90;;;;;;;17.45;86.19;99715.70;1733137;82;21148;-69
2021/07/10 01:52:21;;;;;;;12.07;7.33;;;;;;;17.43;85.87;99717.11;1732918;82;21140;-69
2021/07/10 01:54:49;;;;;;;13.60;7.47;;;;;;;17.43;86.17;99716.27;1733188;82;20975;-69
2021/07/10 01:57:18;;;;;;;10.53;7.37;;;;;;;17.39;86.70;99707.73;1733015;82;20951;-69
2021/07/10 01:59:44;;;;;;;10.72;7.20;;;;;;;17.40;87.48;99709.88;1733016;82;21446;-69
2021/07/10 02:02:11;;;;;;;9.53;7.00;;;;;;;17.40;87.56;99708.57;1732937;82;21176;-69
2021/07/10 02:04:50;;;;;;;11.65;7.55;;;;;;;17.39;87.06;99710.83;1732827;82;21085;-69
2021/07/10 02:07:16;;;;;;;9.75;7.05;;;;;;;17.38;86.97;99710.02;1732884;82;21060;-69
2021/07/10 02:09:44;;;;;;;11.15;6.85;;;;;;;17.37;87.20;99717.53;1733028;82;20967;-69
2021/07/10 02:12:12;;;;;;;9.85;7.30;;;;;;;17.37;86.50;99716.22;1733099;82;20999;-69
2021/07/10 02:14:38;;;;;;;9.63;7.72;;;;;;;17.35;85.66;99721.20;1733061;82;21070;-69
2021/07/10 02:17:06;;;;;;;8.88;7.22;;;;;;;17.32;85.18;99709.09;1733033;82;21408;-69
2021/07/10 02:19:34;;;;;;;8.30;6.70;;;;;;;17.29;85.02;99720.27;1732885;82;21558;-69
2021/07/10 02:22:01;;;;;;;9.73;7.78;;;;;;;17.29;85.99;99719.80;1733089;82;21046;-69
2021/07/10 02:24:27;;;;;;;8.95;7.10;;;;;;;17.34;86.49;99710.31;1732977;82;21090;-69
2021/07/10 02:26:54;;;;;;;13.10;8.58;;;;;;;17.40;86.95;99716.45;1733193;82;21963;-69
2021/07/10 02:29:20;;;;;;;8.65;7.08;;;;;;;17.45;86.88;99723.11;1732946;82;21003;-69
2021/07/10 02:31:48;;;;;;;14.23;7.70;;;;;;;17.50;85.90;99717.55;1732892;82;21038;-69
2021/07/10 02:34:15;;;;;;;8.70;7.90;;;;;;;17.55;85.53;99717.63;1733253;82;21447;-70
2021/07/10 02:36:42;;;;;;;11.00;7.70;;;;;;;17.67;85.91;99721.25;1732998;82;21050;-70
2021/07/10 02:39:09;;;;;;;11.50;7.40;;;;;;;17.91;85.36;99724.03;1732823;82;21136;-70
2021/07/10 02:41:36;;;;;;;8.90;7.83;;;;;;;18.18;83.53;99720.01;1733031;82;21455;-69
2021/07/10 02:44:05;;;;;;;9.90;7.03;;;;;;;18.41;82.16;99722.34;1733067;82;20991;-69
2021/07/10 02:46:33;;;;;;;11.28;6.62;;;;;;;18.60;80.84;99724.08;1732904;82;21035;-69
2021/07/10 02:48:59;;;;;;;9.75;7.03;;;;;;;18.89;79.95;99727.30;1732862;82;21074;-69
2021/07/10 02:51:26;;;;;;;8.90;7.37;;;;;;;19.22;79.06;99712.14;1733054;82;21764;-69
2021/07/10 02:53:55;;;;;;;12.93;7.78;;;;;;;19.60;78.13;99714.14;1733097;82;20968;-70
2021/07/10 02:56:24;;;;;;;8.18;6.55;;;;;;;20.03;76.61;99707.41;1733025;82;21039;-69
2021/07/10 02:58:52;;;;;;;8.83;6.87;;;;;;;20.43;74.89;99707.84;1732830;82;20943;-70
2021/07/10 03:01:19;;;;;;;9.90;7.30;;;;;;;20.86;72.94;99706.13;1732981;82;38096;-70
2021/07/10 03:03:47;;;;;;;8.33;6.78;;;;;;;21.28;71.38;99704.97;1732979;82;21105;-69
2021/07/10 03:06:14;;;;;;;7.85;6.95;;;;;;;21.71;69.89;99698.28;1733167;82;20995;-69
2021/07/10 03:08:42;;;;;;;7.72;6.78;;;;;;;22.12;68.35;99703.23;1732848;82;20986;-70
2021/07/10 03:11:11;;;;;;;9.60;5.75;;;;;;;22.54;66.98;99698.20;1732961;82;21079;-71
2021/07/10 03:13:40;;;;;;;7.20;6.28;;;;;;;22.96;65.96;99696.75;1732928;82;20999;-69
2021/07/10 03:16:07;;;;;;;8.00;5.87;;;;;;;23.38;65.11;99700.82;1732861;82;21968;-68
2021/07/10 03:18:34;;;;;;;7.00;5.90;;;;;;;23.79;63.71;99698.88;1732884;82;20940;-68
2021/07/10 03:21:01;;;;;;;9.13;6.22;;;;;;;24.18;62.22;99696.16;1733207;82;21027;-68
2021/07/10 03:23:27;;;;;;;9.18;6.75;;;;;;;24.58;61.29;99700.69;1732847;82;21927;-70
2021/07/10 03:25:53;;;;;;;11.45;5.90;;;;;;;24.97;60.15;99697.39;1733099;82;20968;-70
2021/07/10 03:28:20;;;;;;;7.95;6.42;;;;;;;25.36;58.85;99691.78;1733042;82;21567;-71
2021/07/10 03:30:50;;;;;;;7.30;6.28;;;;;;;25.72;57.35;99688.13;1732866;82;20951;-71
2021/07/10 03:33:15;;;;;;;6.45;5.75;;;;;;;26.06;55.89;99686.02;1732478;82;21007;-71
2021/07/10 03:35:42;;;;;;;9.85;6.75;;;;;;;26.37;54.83;99687.73;1732934;82;21055;-69
2021/07/10 03:38:08;;;;;;;12.82;6.30;;;;;;;26.74;54.20;99678.88;1733053;82;21587;-68
2021/07/10 03:40:35;;;;;;;11.73;6.10;;;;;;;27.15;53.19;99679.52;1732727;82;21151;-68
2021/07/10 03:43:04;;;;;;;7.40;6.47;;;;;;;27.53;52.16;99672.70;1732805;82;20939;-68
2021/07/10 03:45:30;;;;;;;8.25;6.22;;;;;;;27.92;51.24;99675.53;1733316;82;21066;-68
2021/07/10 03:47:57;;;;;;;11.57;5.97;;;;;;;28.31;50.18;99675.14;1733099;82;21037;-70
2021/07/10 03:50:24;;;;;;;8.15;6.05;;;;;;;28.66;49.24;99676.50;1732906;82;20955;-70
2021/07/10 03:52:50;;;;;;;10.65;5.75;;;;;;;29.02;48.15;99681.34;1733141;82;21974;-70
2021/07/10 03:55:18;;;;;;;31.97;8.48;;;;;;;29.33;47.41;99684.00;1732831;82;20960;-70
2021/07/10 03:57:44;;;;;;;11.03;6.50;;;;;;;29.63;46.76;99684.45;1732953;82;20958;-70
2021/07/10 04:00:15;;;;;;;8.58;6.50;;;;;;;29.94;46.21;99682.17;1732885;82;21506;-70
2021/07/10 04:02:43;;;;;;;12.00;8.15;;;;;;;30.14;45.40;99681.48;1732901;82;21042;-70
2021/07/10 04:05:10;;;;;;;6.58;5.67;;;;;;;30.36;44.60;99678.39;1733196;82;21105;-70
2021/07/10 04:07:39;;;;;;;7.28;6.58;;;;;;;30.46;44.08;99672.22;1732833;82;20983;-69
2021/07/10 04:10:08;;;;;;;7.45;6.72;;;;;;;30.50;43.69;99664.63;1732982;82;20998;-70
2021/07/10 04:12:34;;;;;;;11.88;7.15;;;;;;;30.54;43.43;99665.09;1733361;82;21003;-70
2021/07/10 04:15:03;;;;;;;9.55;7.05;;;;;;;30.63;43.01;99663.98;1732849;82;20935;-70
2021/07/10 04:17:31;;;;;;;11.85;7.83;;;;;;;30.77;42.72;99668.52;1732897;82;21183;-70
2021/07/10 04:19:58;;;;;;;9.45;7.47;;;;;;;30.89;42.27;99664.30;1732836;82;21062;-70
2021/07/10 04:22:24;;;;;;;10.23;7.42;;;;;;;30.99;42.16;99657.27;1732818;82;21443;-70
2021/07/10 04:24:51;;;;;;;16.37;8.00;;;;;;;31.17;41.86;99655.03;1732980;82;21503;-70
2021/07/10 04:27:18;;;;;;;10.03;7.17;;;;;;;31.41;41.64;99655.12;1733155;82;21042;-70
2021/07/10 04:29:47;;;;;;;14.60;7.72;;;;;;;31.66;41.06;99649.70;1733091;82;21136;-70
2021/07/10 04:32:16;;;;;;;12.80;8.28;;;;;;;31.92;40.53;99649.06;1733247;82;21397;-70
2021/07/10 04:34:42;;;;;;;7.78;6.90;;;;;;;32.15;40.20;99640.73;1732942;82;21015;-69
2021/07/10 04:37:08;;;;;;;8.13;7.33;;;;;;;32.34;39.89;99641.89;1733139;82;21546;-69
2021/07/10 04:39:35;;;;;;;8.48;7.42;;;;;;;32.47;39.50;99643.28;1732913;82;20971;-70
2021/07/10 04:42:02;;;;;;;9.20;7.65;;;;;;;32.58;39.39;99640.52;1733025;82;21120;-70
2021/07/10 04:44:28;;;;;;;9.30;7.42;;;;;;;32.67;39.54;99641.50;1732991;82;21038;-69
2021/07/10 04:46:55;;;;;;;9.18;7.22;;;;;;;32.63;39.42;99640.75;1733219;82;21463;-70
2021/07/10 04:49:21;;;;;;;8.58;7.65;;;;;;;32.64;39.49;99639.20;1732904;82;21023;-70
2021/07/10 04:51:48;;;;;;;14.58;7.00;;;;;;;32.77;39.29;99635.27;1733334;82;21003;-70
2021/07/10 04:54:14;;;;;;;8.13;7.37;;;;;;;32.99;39.34;99640.47;1733142;82;21863;-69
2021/07/10 04:56:40;;;;;;;12.85;7.33;;;;;;;33.25;38.61;99641.88;1733563;82;21030;-71
2021/07/10 04:59:07;;;;;;;8.83;7.50;;;;;;;33.26;38.85;99640.04;1733007;82;20999;-68
2021/07/10 05:01:34;;;;;;;9.05;7.17;;;;;;;33.42;38.48;99635.58;1733156;82;20950;-69
2021/07/10 05:04:00;;;;;;;8.95;7.92;;;;;;;33.63;38.14;99633.20;1733124;82;20999;-69
2021/07/10 05:06:27;;;;;;;8.65;7.70;;;;;;;33.82;37.61;99633.72;1732999;82;23256;-69
2021/07/10 05:08:55;;;;;;;8.03;7.25;;;;;;;33.96;37.38;99632.69;1732962;82;20888;-69
2021/07/10 05:11:23;;;;;;;9.60;7.35;;;;;;;34.13;37.32;99631.70;1733018;82;20936;-69
2021/07/10 05:13:49;;;;;;;12.50;7.22;;;;;;;34.30;36.96;99631.58;1733258;82;21505;-69
2021/07/10 05:16:16;;;;;;;13.15;7.00;;;;;;;34.51;36.29;99634.51;1733316;82;20946;-69
2021/07/10 05:18:42;;;;;;;7.72;7.03;;;;;;;34.69;35.80;99634.63;1732981;82;21158;-69
2021/07/10 05:21:08;;;;;;;15.32;7.72;;;;;;;34.85;35.51;99626.05;1733304;82;21550;-69
2021/07/10 05:23:35;;;;;;;13.22;8.48;;;;;;;35.04;34.85;99629.66;1733285;82;20999;-69
2021/07/10 05:26:01;;;;;;;10.78;6.83;;;;;;;35.18;34.50;99629.88;1733347;82;21043;-69
2021/07/10 05:28:28;;;;;;;6.62;6.03;;;;;;;35.35;34.20;99633.45;1733250;82;21533;-70
2021/07/10 05:30:54;;;;;;;8.53;6.55;;;;;;;35.49;34.00;99628.22;1733166;82;21981;-70
2021/07/10 05:33:20;;;;;;;8.28;6.72;;;;;;;35.57;33.71;99621.98;1733025;82;21066;-69
2021/07/10 05:35:48;;;;;;;7.42;6.55;;;;;;;35.64;33.52;99631.94;1733269;82;21059;-69
2021/07/10 05:38:16;;;;;;;5.92;5.28;;;;;;;35.66;33.15;99632.55;1733039;82;20963;-69
2021/07/10 05:40:43;;;;;;;30.25;8.80;;;;;;;35.70;32.75;99629.17;1729454;82;21045;-69
2021/07/10 05:43:09;;;;;;;9.70;5.70;;;;;;;35.80;32.25;99626.80;1717241;83;21779;-70
2021/07/10 05:45:37;;;;;;;9.13;5.90;;;;;;;35.95;32.05;99627.00;1717015;83;20963;-69
2021/07/10 05:48:06;;;;;;;10.53;5.50;;;;;;;36.10;31.61;99622.03;1717168;83;21109;-69
2021/07/10 05:50:33;;;;;;;8.40;6.20;;;;;;;36.21;31.84;99623.98;1717485;83;21021;-69
2021/07/10 05:53:01;;;;;;;8.68;6.20;;;;;;;36.21;31.60;99621.27;1717223;83;21057;-69
2021/07/10 05:55:28;;;;;;;10.15;6.30;;;;;;;36.20;31.21;99627.73;1717207;83;21394;-69
2021/07/10 05:57:54;;;;;;;9.08;5.67;;;;;;;36.16;31.11;99626.03;1717158;83;20951;-69
2021/07/10 06:00:21;;;;;;;6.97;5.58;;;;;;;36.11;31.42;99621.81;1717128;83;21455;-70
2021/07/10 06:02:47;;;;;;;6.30;5.65;;;;;;;36.03;31.39;99619.91;1717127;83;20963;-70
2021/07/10 06:05:14;;;;;;;9.00;5.85;;;;;;;35.81;31.45;99619.52;1717242;83;20970;-69
2021/07/10 06:07:40;;;;;;;10.10;6.42;;;;;;;35.47;32.05;99624.91;1717131;83;21125;-70
2021/07/10 06:10:12;;;;;;;8.80;5.75;;;;;;;35.28;32.81;99625.89;1717158;83;20940;-70
2021/07/10 06:12:39;;;;;;;10.38;6.25;;;;;;;35.02;32.54;99625.52;1717144;83;21033;-69
2021/07/10 06:15:08;;;;;;;9.65;5.60;;;;;;;34.67;33.50;99623.20;1717194;83;21439;-69
2021/07/10 06:17:36;;;;;;;8.70;5.92;;;;;;;34.45;33.72;99621.85;1717177;83;20978;-69
2021/07/10 06:20:06;;;;;;;7.05;5.15;;;;;;;34.34;34.16;99625.23;1717343;83;21440;-69
2021/07/10 06:22:32;;;;;;;7.22;5.83;;;;;;;34.21;34.05;99620.14;1717067;83;21038;-70
2021/07/10 06:24:58;;;;;;;6.62;5.67;;;;;;;34.02;33.99;99620.20;1717163;83;21053;-69
2021/07/10 06:27:25;;;;;;;6.17;5.25;;;;;;;33.85;34.26;99617.95;1717039;83;21015;-69
2021/07/10 06:29:51;;;;;;;8.23;5.10;;;;;;;33.70;34.38;99621.89;1717217;83;21400;-69
2021/07/10 06:32:18;;;;;;;4.62;4.25;;;;;;;33.56;34.17;99621.09;1717359;83;21105;-69
2021/07/10 06:34:45;;;;;;;8.05;5.53;;;;;;;33.36;34.14;99615.70;1717070;83;20942;-69
2021/07/10 06:37:12;;;;;;;4.72;4.33;;;;;;;33.13;34.45;99610.67;1717333;83;21458;-69
2021/07/10 06:39:38;;;;;;;7.95;5.10;;;;;;;32.97;35.28;99608.38;1716995;83;21194;-69
2021/07/10 06:42:05;;;;;;;9.65;4.62;;;;;;;32.80;34.97;99606.55;1718765;82;21068;-70
2021/07/10 06:44:31;;;;;;;8.20;4.53;;;;;;;32.64;35.58;99614.14;1719710;83;21122;-70
2021/07/10 06:46:57;;;;;;;6.58;4.80;;;;;;;32.46;36.40;99610.66;1719505;83;21662;-69
2021/07/10 06:49:24;;;;;;;6.42;4.72;;;;;;;32.24;36.89;99616.67;1719794;83;21420;-70
2021/07/10 06:51:50;;;;;;;6.60;4.90;;;;;;;32.04;36.91;99616.53;1719634;83;20999;-70
2021/07/10 06:54:18;;;;;;;5.47;4.90;;;;;;;31.87;36.87;99613.02;1719719;83;20962;-69
2021/07/10 06:56:44;;;;;;;7.37;4.92;;;;;;;31.71;36.96;99622.23;1719947;83;21130;-70
2021/07/10 06:59:11;;;;;;;10.60;5.40;;;;;;;31.50;36.96;99615.00;1720088;83;21482;-70
2021/07/10 07:01:38;;;;;;;5.75;4.90;;;;;;;31.27;37.85;99614.39;1719690;83;21391;-69
2021/07/10 07:04:06;;;;;;;5.62;5.12;;;;;;;31.09;38.38;99622.36;1719603;83;20958;-70
2021/07/10 07:06:32;;;;;;;5.83;5.20;;;;;;;30.91;38.45;99617.11;1719658;83;21470;-69
2021/07/10 07:09:00;;;;;;;6.05;4.58;;;;;;;30.74;38.68;99616.02;1719500;83;21046;-70
2021/07/10 07:11:26;;;;;;;7.78;4.40;;;;;;;30.56;38.57;99622.31;1719878;82;20954;-70
2021/07/10 07:13:53;;;;;;;5.25;4.10;;;;;;;30.39;39.13;99625.66;1719673;83;21419;-70
2021/07/10 07:16:19;;;;;;;7.33;5.50;;;;;;;30.27;39.42;99619.63;1720031;83;21053;-70
2021/07/10 07:18:46;;;;;;;6.25;4.92;;;;;;;30.21;39.84;99619.85;1719599;83;20955;-70
2021/07/10 07:21:12;;;;;;;8.95;5.03;;;;;;;30.13;39.94;99617.28;1719599;83;23333;-70
2021/07/10 07:23:39;;;;;;;5.22;4.10;;;;;;;30.08;39.70;99623.20;1719560;83;20995;-70
2021/07/10 07:26:05;;;;;;;4.60;4.20;;;;;;;30.05;37.62;99622.73;1719665;83;21056;-70
2021/07/10 07:28:32;;;;;;;8.00;4.17;;;;;;;30.04;36.23;99622.41;1719698;83;21022;-70
2021/07/10 07:30:59;;;;;;;4.55;3.85;;;;;;;30.04;36.56;99615.70;1719696;83;21049;-70
2021/07/10 07:33:27;;;;;;;6.35;4.12;;;;;;;30.11;36.42;99616.63;1719688;83;21097;-70
2021/07/10 07:35:53;;;;;;;4.67;4.03;;;;;;;30.18;36.17;99610.83;1719924;83;20957;-70
2021/07/10 07:38:20;;;;;;;6.20;3.92;;;;;;;30.24;36.01;99614.63;1719591;83;21541;-70
2021/07/10 07:40:46;;;;;;;6.12;4.08;;;;;;;30.29;35.71;99616.25;1719774;83;20955;-70
2021/07/10 07:43:13;;;;;;;6.03;4.10;;;;;;;30.31;35.45;99611.02;1717171;83;20994;-69
2021/07/10 07:45:41;;;;;;;7.55;4.20;;;;;;;30.34;37.45;99610.66;1717284;83;22789;-69
2021/07/10 07:48:07;;;;;;;6.22;4.10;;;;;;;30.33;37.09;99618.38;1716955;83;21014;-70
2021/07/10 07:50:34;;;;;;;6.12;4.50;;;;;;;30.37;35.95;99619.67;1717328;83;21453;-70
2021/07/10 07:53:00;;;;;;;5.35;3.80;;;;;;;30.42;36.37;99619.09;1717083;83;21046;-70
2021/07/10 07:55:27;;;;;;;6.47;4.22;;;;;;;30.42;36.48;99621.77;1717211;83;20931;-69
2021/07/10 07:57:53;;;;;;;4.62;3.87;;;;;;;30.40;36.70;99617.94;1717168;82;21423;-70
2021/07/10 08:00:22;;;;;;;8.58;3.80;;;;;;;30.49;36.67;99616.82;1717187;83;20934;-71
2021/07/10 08:02:49;;;;;;;7.10;4.33;;;;;;;30.69;36.23;99616.25;1717274;81;21062;-70
2021/07/10 08:05:16;;;;;;;7.45;4.25;;;;;;;30.83;35.75;99611.34;1717250;82;21017;-70
2021/07/10 08:07:43;;;;;;;6.97;4.65;;;;;;;30.86;36.06;99606.11;1717345;83;21353;-70
2021/07/10 08:10:12;;;;;;;9.45;5.35;;;;;;;30.92;36.25;99610.72;1717399;83;21056;-70
2021/07/10 08:12:40;;;;;;;4.47;4.08;;;;;;;31.06;35.41;99613.34;1717359;83;21030;-70
2021/07/10 08:15:08;;;;;;;4.20;3.67;;;;;;;31.14;34.99;99613.25;1717598;83;20955;-69
2021/07/10 08:17:35;;;;;;;6.30;5.30;;;;;;;31.10;34.18;99613.28;1717275;83;20954;-70
2021/07/10 08:20:01;;;;;;;6.62;4.25;;;;;;;31.00;35.03;99617.30;1717353;83;21085;-70
2021/07/10 08:22:29;;;;;;;4.28;3.87;;;;;;;30.90;35.24;99614.11;1717288;83;21526;-70
2021/07/10 08:24:56;;;;;;;4.97;3.90;;;;;;;30.79;35.11;99612.73;1717206;83;20946;-70
2021/07/10 08:27:23;;;;;;;4.50;4.03;;;;;;;30.63;35.37;99607.09;1717609;83;20994;-70
2021/07/10 08:29:49;;;;;;;5.40;3.87;;;;;;;30.57;36.03;99611.90;1717504;83;21058;-70
2021/07/10 08:32:17;;;;;;;6.65;4.17;;;;;;;30.59;36.25;99604.97;1717355;83;20955;-70
2021/07/10 08:34:43;;;;;;;4.03;3.65;;;;;;;30.68;36.26;99603.85;1717713;83;21759;-70
2021/07/10 08:37:10;;;;;;;4.40;3.42;;;;;;;30.77;35.02;99603.55;1717311;83;20979;-70
2021/07/10 08:39:37;;;;;;;6.75;4.03;;;;;;;30.81;34.61;99606.16;1717525;82;21431;-70
2021/07/10 08:42:05;;;;;;;5.92;4.10;;;;;;;30.88;34.51;99604.06;1722201;82;21431;-70
2021/07/10 08:44:34;;;;;;;5.42;3.95;;;;;;;30.99;34.65;99603.03;1733190;82;21507;-70
2021/07/10 08:47:00;;;;;;;6.25;3.70;;;;;;;31.07;34.42;99602.91;1732979;82;21559;-69
2021/07/10 08:49:27;;;;;;;5.00;4.10;;;;;;;31.08;34.30;99600.55;1732954;82;20960;-70
2021/07/10 08:51:53;;;;;;;6.67;4.08;;;;;;;31.09;34.16;99600.04;1733051;82;20967;-70
2021/07/10 08:54:19;;;;;;;9.10;4.22;;;;;;;31.13;33.34;99596.81;1733213;82;21007;-70
2021/07/10 08:56:46;;;;;;;7.92;3.92;;;;;;;31.19;32.92;99593.84;1733159;82;20968;-69
2021/07/10 08:59:13;;;;;;;7.17;3.75;;;;;;;31.28;33.09;99592.70;1733322;82;21100;-70
2021/07/10 09:01:39;;;;;;;9.50;4.20;;;;;;;31.42;33.48;99592.28;1732999;82;21049;-69
2021/07/10 09:04:06;;;;;;;5.55;4.30;;;;;;;31.52;33.47;99587.42;1733040;82;21455;-70
2021/07/10 09:06:32;;;;;;;4.72;4.05;;;;;;;31.46;33.41;99595.73;1733152;82;21046;-70
2021/07/10 09:09:00;;;;;;;5.25;3.75;;;;;;;31.35;33.38;99590.91;1733109;82;21053;-70
2021/07/10 09:11:28;;;;;;;10.00;4.00;;;;;;;31.31;33.48;99586.11;1732896;81;21093;-70
2021/07/10 09:13:55;;;;;;;6.40;3.60;;;;;;;31.30;33.47;99584.45;1732827;82;21011;-71
2021/07/10 09:16:35;;;;;;;7.33;4.03;;;;;;;31.33;33.32;99586.23;1732903;82;20959;-70
2021/07/10 09:19:09;;;;;;;5.10;3.50;;;;;;;31.40;33.50;99585.76;1733143;82;20987;-69
2021/07/10 09:21:50;;;;;;;4.35;3.70;;;;;;;31.48;33.84;99588.83;1733362;82;20999;-69
2021/07/10 09:24:33;;;;;;;4.00;3.70;;;;;;;31.47;33.70;99583.96;1733036;82;21199;-70
2021/07/10 09:27:08;;;;;;;5.45;3.80;;;;;;;31.43;33.88;99581.34;1731831;82;21673;-70
2021/07/10 09:29:43;;;;;;;7.33;3.50;;;;;;;31.41;33.50;99581.21;1732922;82;20967;-69
2021/07/10 09:32:18;;;;;;;5.78;3.65;;;;;;;31.44;33.33;99587.03;1733008;82;21083;-70
2021/07/10 09:34:48;;;;;;;5.05;3.60;;;;;;;31.55;32.81;99574.93;1732909;82;20987;-71
2021/07/10 09:37:23;;;;;;;4.35;3.70;;;;;;;31.71;32.15;99578.69;1733267;82;21106;-70
2021/07/10 09:40:02;;;;;;;4.75;4.22;;;;;;;31.83;31.97;99578.44;1732781;82;20987;-70
2021/07/10 09:42:39;;;;;;;5.72;4.03;;;;;;;31.92;32.27;99575.09;1727413;82;21483;-70
2021/07/10 09:45:24;;;;;;;5.10;3.95;;;;;;;32.05;32.58;99572.97;1717213;83;20978;-69
2021/07/10 09:47:50;;;;;;;4.33;3.65;;;;;;;32.23;32.17;99580.53;1717228;83;21509;-70
2021/07/10 09:50:19;;;;;;;4.00;3.60;;;;;;;32.25;31.96;99575.27;1717195;83;21152;-70
2021/07/10 09:52:45;;;;;;;5.75;4.03;;;;;;;32.15;32.02;99587.73;1717346;83;20951;-70
2021/07/10 09:55:16;;;;;;;9.50;3.52;;;;;;;32.01;31.96;99585.16;1717189;83;21038;-70
2021/07/10 09:57:44;;;;;;;4.92;3.30;;;;;;;31.87;31.75;99577.53;1717313;83;21517;-70
2021/07/10 10:00:17;;;;;;;4.55;3.92;;;;;;;31.82;31.73;99571.91;1717255;83;20994;-71
2021/07/10 10:02:56;;;;;;;6.60;3.98;;;;;;;31.78;31.59;99576.85;1717478;83;21119;-71
2021/07/10 10:05:31;;;;;;;9.43;3.87;;;;;;;31.77;31.67;99573.87;1717165;83;20994;-70
2021/07/10 10:08:00;;;;;;;9.55;3.70;;;;;;;31.90;32.23;99578.49;1717204;83;20994;-70
2021/07/10 10:10:36;;;;;;;8.30;3.75;;;;;;;32.05;32.18;99579.70;1717119;83;21573;-70
2021/07/10 10:13:10;;;;;;;9.75;3.75;;;;;;;32.22;31.13;99570.80;1716578;83;21002;-69
2021/07/10 10:15:45;;;;;;;5.70;3.83;;;;;;;32.41;30.81;99567.36;1717303;83;21499;-70
2021/07/10 10:18:21;;;;;;;6.37;3.50;;;;;;;32.59;30.43;99570.31;1717197;82;21446;-69
2021/07/10 10:20:50;;;;;;;4.33;3.92;;;;;;;32.70;30.20;99563.00;1717062;83;21092;-69
2021/07/10 10:23:18;;;;;;;7.67;4.10;;;;;;;32.82;30.29;99574.02;1717277;83;21450;-69
2021/07/10 10:25:45;;;;;;;4.28;3.25;;;;;;;32.99;31.04;99565.03;1717137;83;20962;-70
2021/07/10 10:28:19;;;;;;;5.95;3.52;;;;;;;33.05;30.48;99573.13;1717103;83;23261;-70
2021/07/10 10:30:56;;;;;;;4.60;3.42;;;;;;;33.11;31.19;99568.78;1717438;83;20994;-70
2021/07/10 10:33:24;;;;;;;4.17;3.65;;;;;;;33.14;30.51;99561.13;1717200;83;21113;-70
2021/07/10 10:35:57;;;;;;;4.50;3.52;;;;;;;33.03;30.53;99561.72;1717342;83;21013;-70
2021/07/10 10:38:21;;;;;;;5.83;3.70;;;;;;;32.85;30.72;99570.92;1716193;83;21010;-69
2021/07/10 10:40:51;;;;;;;3.75;3.35;;;;;;;32.66;30.73;99566.30;1717014;83;21139;-71
2021/07/10 10:43:19;;;;;;;5.40;3.45;;;;;;;32.48;30.56;99566.87;1717087;83;21520;-70
2021/07/10 10:45:46;;;;;;;5.83;4.50;;;;;;;32.35;30.93;99560.94;1717048;83;20954;-70
2021/07/10 10:48:19;;;;;;;4.25;3.47;;;;;;;32.31;31.01;99555.64;1717168;83;21043;-69
2021/07/10 10:50:46;;;;;;;4.00;3.70;;;;;;;32.31;30.71;99551.60;1715999;83;20995;-70
2021/07/10 10:53:22;;;;;;;4.05;3.05;;;;;;;32.29;31.22;99548.79;1717285;83;21945;-70
2021/07/10 10:55:50;;;;;;;9.93;3.60;;;;;;;32.19;31.71;99546.44;1717033;83;21009;-72
2021/07/10 10:58:29;;;;;;;3.17;2.92;;;;;;;32.10;32.51;99552.52;1717159;83;20962;-69
2021/07/10 11:01:03;;;;;;;5.78;3.37;;;;;;;31.99;32.36;99553.59;1717323;83;20995;-70
2021/07/10 11:03:40;;;;;;;4.25;3.83;;;;;;;31.89;32.62;99551.78;1716687;83;21041;-70
2021/07/10 11:06:06;;;;;;;4.10;3.60;;;;;;;31.88;32.66;99546.09;1717129;83;21783;-70
2021/07/10 11:08:38;;;;;;;5.53;3.40;;;;;;;31.91;32.09;99545.19;1716982;83;20999;-71
2021/07/10 11:11:13;;;;;;;4.42;2.98;;;;;;;31.99;31.67;99537.44;1717180;83;20974;-70
2021/07/10 11:13:46;;;;;;;4.95;3.02;;;;;;;32.08;31.68;99542.47;1717264;83;21038;-70
2021/07/10 11:16:20;;;;;;;9.05;3.10;;;;;;;32.20;31.54;99538.70;1716095;83;21481;-71
2021/07/10 11:19:08;;;;;;;6.65;4.20;;;;;;;32.30;31.76;99530.27;1717278;83;20946;-69
2021/07/10 11:21:44;;;;;;;6.85;3.42;;;;;;;32.40;31.54;99531.53;1716992;83;21003;-70
2021/07/10 11:24:21;;;;;;;4.67;3.47;;;;;;;32.45;30.55;99527.72;1717444;83;20998;-71
2021/07/10 11:27:00;;;;;;;5.97;3.25;;;;;;;32.44;30.14;99522.02;1717105;83;21050;-70
2021/07/10 11:29:36;;;;;;;6.20;3.00;;;;;;;32.40;30.82;99522.11;1717089;83;20946;-69
2021/07/10 11:32:14;;;;;;;7.45;3.67;;;;;;;32.36;31.59;99532.16;1717065;83;21191;-69
2021/07/10 11:34:48;;;;;;;4.92;3.47;;;;;;;32.34;31.04;99524.28;1717029;83;21010;-69
2021/07/10 11:37:26;;;;;;;5.47;3.20;;;;;;;32.42;30.58;99521.91;1717219;83;21439;-69